PDT,Max TemperatureF,Mean TemperatureF,Min TemperatureF,Max Dew PointF,MeanDew PointF,Min DewpointF,Max Humidity, Mean Humidity, Min Humidity, Max Sea Level PressureIn, Mean Sea Level PressureIn, Min Sea Level PressureIn, Max VisibilityMiles, Mean VisibilityMiles, Min VisibilityMiles, Max Wind SpeedMPH, Mean Wind SpeedMPH, Max Gust SpeedMPH,PrecipitationIn, CloudCover, Events, WindDirDegrees
2013-5-1,66,49,34,32,23,16,67,37,21,30.36,30.33,30.28,10,10,10,15,8,22,0.00,0,,56
2013-5-2,73,62,50,31,20,9,32,22,14,30.30,30.23,30.18,10,10,10,21,8,32,0.00,0,Rain,74
2013-5-3,73,60,46,38,33,27,56,38,25,30.17,30.11,30.03,10,10,10,21,9,32,0.00,0,,360
2013-5-4,73,62,54,36,29,23,41,29,19,30.02,29.85,29.73,10,10,10,18,9,29,0.00,1,,72
2013-5-5,75,64,52,43,36,28,71,45,21,29.81,29.69,29.61,10,9,1,24,10,33,0.14,3,Rain,46
2013-5-6,64,54,44,46,45,42,100,87,50,29.99,29.90,29.75,10,3,0,13,6,17,0.38,5,Fog-Rain,318
2013-5-7,62,53,44,51,46,43,100,89,65,30.05,29.99,29.90,10,4,0,10,5,,0.09,6,Fog-Rain,298
2013-5-8,66,56,46,47,44,37,93,67,45,30.10,30.04,29.99,10,10,10,12,4,18,0.00,2,,4
2013-5-9,73,62,51,51,46,37,77,59,37,30.13,30.09,30.05,10,10,10,12,6,16,0.00,0,,4
2013-5-10,79,66,55,53,46,38,67,52,32,30.17,30.13,30.09,10,10,10,10,7,,0.00,0,,42
2013-5-11,79,68,59,53,44,34,60,45,28,30.16,30.08,30.03,10,10,10,8,4,,0.00,0,,159
2013-5-12,73,64,53,48,40,34,62,46,30,30.09,30.06,30.04,10,10,10,12,4,,0.00,0,,248
2013-5-13,64,53,41,45,42,35,93,68,35,30.18,30.10,30.02,10,10,10,10,5,16,0.00,3,,309
2013-5-14,63,50,39,43,39,36,100,82,41,30.17,30.12,30.06,10,6,0,13,7,18,0.00,3,Fog,355
2013-5-15,54,48,42,43,40,35,89,75,59,30.10,30.06,30.01,10,10,3,9,4,,0.02,5,Rain,314
2013-5-16,52,45,39,45,41,37,100,90,66,30.03,29.98,29.94,10,6,0,13,7,17,0.22,8,Fog-Rain,233
2013-5-17,53,45,37,41,38,34,100,87,62,30.11,30.04,29.97,10,6,0,7,3,,0.01,8,Fog,336
2013-5-18,54,44,37,45,38,36,100,89,62,30.31,30.17,30.10,10,6,0,13,4,,0.00,7,Fog-Rain,201
2013-5-19,57,47,37,43,39,36,100,87,53,30.37,30.32,30.25,10,4,0,15,7,23,0.01,6,Fog,7
2013-5-20,70,56,42,47,40,28,82,60,23,30.26,30.09,29.93,10,10,10,13,7,,0.00,0,,43
2013-5-21,48,38,28,41,32,24,100,88,38,30.09,29.96,29.80,10,6,0,16,9,30,0.08,7,Fog-Rain-Snow,239
2013-5-22,43,35,28,37,31,27,100,91,70,30.09,30.03,29.99,10,4,0,12,6,17,0.05,8,Fog-Rain-Snow,219
2013-5-23,51,38,30,36,31,28,100,84,59,30.08,30.01,29.96,10,6,0,10,2,17,0.00,8,Fog-Rain,324
2013-5-24,50,42,35,36,34,31,100,83,58,30.09,30.05,30.01,10,7,0,10,5,,0.00,6,Fog-Rain,248
2013-5-25,62,48,36,41,36,31,96,77,39,30.06,30.02,29.96,10,8,0,12,6,,0.08,4,Fog-Rain,141
2013-5-26,57,48,41,44,40,36,100,85,53,30.07,30.02,29.95,10,5,0,15,8,22,0.05,6,Fog-Rain,207
2013-5-27,48,44,39,47,44,37,100,96,82,30.01,29.90,29.86,10,2,0,20,13,33,0.53,8,Fog-Rain,202
2013-5-28,60,50,42,45,42,37,100,87,49,29.99,29.92,29.78,10,5,0,20,8,31,0.03,7,Fog-Rain,210
2013-5-29,57,46,37,45,40,35,100,85,56,30.06,29.91,29.75,10,6,0,18,11,30,0.07,6,Fog-Rain,224
2013-5-30,55,45,35,38,35,32,100,79,51,30.21,30.11,30.05,10,8,0,10,6,22,0.00,4,Fog,349
2013-5-31,66,52,37,42,37,33,100,75,36,30.24,30.21,30.18,10,7,0,13,6,21,0.00,1,Fog,7